Cabri, Canada
Current Conditions -  °F | °C
As of 10:00 AM on Friday 28 Nov 2014 (Local Time) from CYYN Reporting Station
Moderate Fog Moderate Fog  
Wind Chill:   Ceiling: 200
Heat Index: 14°   Visibility: 0.25mi
Dew Point: 12°   Wind: 12mph
Humidity: 93%   Direction: 130°SE
Pressure: 29.47"   Gusts: 18mph
Location:  50.62°N, 108.45°W
Report Text: CYYN 281600Z AUTO 13010G16KT 1/4SM FZFG VV002 M10/M11 A2947 RMK ICG SLP027
Loading
Personal Weather Stations






























Interactive Weather Map New forecast layout! Learn more

10-Day Weather Forecast

Advertisements
Track Severe Weather on mobile